< < Back
Terminal Aerodrome Forecast


Current Version              Previous Versions:   1  2  3  4  5  6  7  8  9  

Terminal Aerodrome Forecast

971
FTUS44 KBMX 022300
TAFMGM
TAF
KMGM 022329Z 0300/0324 VRB02KT 4SM -DZ BR OVC006
     FM031300 10003KT 2SM BR OVC004
     FM031600 15004KT 5SM BR OVC008=



Latest METAR

012
SAUS80 KWBC 031600 RRB
MTRMGM
METAR KMGM 031553Z 15004KT 2 1/2SM BR FEW004 OVC031 19/17 A3019 RMK AO2
SLP220 T01890172


USA.gov is the U.S. government's official web portal to all federal, state and local government web resources and services.